Main page
METAR-TAF:

METAR-TAF

Airports :

Belfast International Airport

Belfast, Northern Ireland

latitude: 54-39N, longitude: 006-13W, elevation: 81 m

Current weather observation

The report was made 36 minutes ago, at 02:50 UTC
Wind 8 kt from the Southwest
Temperature 7°C
Humidity 81%
Pressure 1033 hPa
Visibility 10 km or more
Broken clouds at a height of 3500 ft

METAR: EGAA 270250Z 23008KT 9999 BKN035 07/04 Q1033

Time: 03:26 (03:26 UTC)

Forecast

The report was made 4 hours and 34 minutes ago, at 22:52 UTC
Forecast valid from 27 at 00 UTC to 27 at 24 UTC
Wind 9 kt from the West
Visibility 10 km or more
Few clouds at a height of 2500 ft
Broken clouds at a height of 3500 ft

TAF: EGAA 262252Z 2700/2724 26009KT 9999 FEW025 BKN035

Weather observations and forecasts of more than 4000 airports (METAR and TAF reports).

The available stations are represented by yellow and red dots on the map.

Hover mouse over dot to see the name of the station.

Then click to see weather observations and forecasts.

To change the map : click on the green buttons with a black cross to zoom in, on the green button with a dash to zoom out, or on the green arrows for adjacent maps.


METAR-TAF: